createdAt,value
2022-11-14T00:00:35.747Z,33.80
2022-11-14T00:01:35.534Z,32.80
2022-11-14T00:02:36.678Z,34.10
2022-11-14T00:03:35.282Z,37.50
2022-11-14T00:04:35.304Z,34.80
2022-11-14T00:05:35.291Z,35.30
2022-11-14T00:06:35.445Z,34.00
2022-11-14T00:07:35.319Z,35.70
2022-11-14T00:08:35.394Z,37.10
2022-11-14T00:09:35.351Z,34.60
2022-11-14T00:10:35.222Z,37.10
2022-11-14T00:11:35.219Z,35.50
2022-11-14T00:12:36.164Z,35.10
2022-11-14T00:13:36.052Z,36.50
2022-11-14T00:14:35.403Z,33.50
2022-11-14T00:15:35.287Z,35.60
2022-11-14T00:16:35.183Z,36.20
2022-11-14T00:17:35.039Z,34.50
2022-11-14T00:18:35.719Z,34.60
2022-11-14T00:19:35.650Z,35.10
2022-11-14T00:20:35.073Z,35.10
2022-11-14T00:21:35.098Z,34.40
2022-11-14T00:22:35.089Z,33.10
2022-11-14T00:23:35.803Z,35.10
2022-11-14T00:24:35.116Z,34.20
2022-11-14T00:25:35.066Z,33.50
2022-11-14T00:26:34.977Z,34.80
2022-11-14T00:27:36.163Z,33.40
2022-11-14T00:28:35.007Z,34.90
2022-11-14T00:29:35.951Z,35.30
2022-11-14T00:30:34.955Z,32.40
2022-11-14T00:31:34.959Z,38.10
2022-11-14T00:32:35.131Z,36.70
2022-11-14T00:33:35.049Z,34.30
2022-11-14T00:34:34.977Z,33.50
2022-11-14T00:35:34.985Z,34.60
2022-11-14T00:36:35.015Z,36.60
2022-11-14T00:37:35.039Z,37.20
2022-11-14T00:38:35.053Z,34.00
2022-11-14T00:39:35.149Z,37.50
2022-11-14T00:40:34.934Z,36.90
2022-11-14T00:41:34.858Z,40.40
2022-11-14T00:42:34.817Z,38.00
2022-11-14T00:43:34.766Z,36.00
2022-11-14T00:44:34.681Z,36.20
2022-11-14T00:45:34.748Z,35.70
2022-11-14T00:46:34.717Z,38.40
2022-11-14T00:47:34.846Z,36.10
2022-11-14T00:48:34.702Z,34.70
2022-11-14T00:49:34.870Z,33.30
2022-11-14T00:50:34.726Z,37.40
2022-11-14T00:51:34.733Z,33.20
2022-11-14T00:52:34.578Z,34.70
2022-11-14T00:53:34.559Z,36.00
2022-11-14T00:54:34.715Z,32.00
2022-11-14T00:55:34.624Z,33.70
2022-11-14T00:56:34.652Z,34.40
2022-11-14T00:57:34.640Z,34.50
2022-11-14T00:58:34.571Z,35.20
2022-11-14T00:59:34.550Z,34.40
2022-11-14T01:00:34.609Z,34.10
2022-11-14T01:01:34.541Z,35.60
2022-11-14T01:02:34.623Z,34.00
2022-11-14T01:03:34.596Z,37.20
2022-11-14T01:04:34.524Z,38.10
2022-11-14T01:05:34.438Z,35.80
2022-11-14T01:06:34.656Z,36.40
2022-11-14T01:07:34.645Z,36.00
2022-11-14T01:08:34.633Z,36.60
2022-11-14T01:09:34.414Z,36.50
2022-11-14T01:10:34.387Z,35.50
2022-11-14T01:11:34.523Z,37.20
2022-11-14T01:12:34.411Z,37.40
2022-11-14T01:13:34.686Z,37.00
2022-11-14T01:14:35.589Z,35.80
2022-11-14T01:15:38.805Z,35.20
2022-11-14T01:16:35.916Z,37.40
2022-11-14T01:17:36.163Z,37.50
2022-11-14T01:18:36.469Z,34.20
2022-11-14T01:19:35.778Z,35.30
2022-11-14T01:20:35.212Z,38.90
2022-11-14T01:21:35.864Z,38.80
2022-11-14T01:22:34.719Z,37.30
2022-11-14T01:23:35.002Z,38.00
2022-11-14T01:24:36.972Z,36.40
2022-11-14T01:25:36.246Z,35.90
2022-11-14T01:26:37.378Z,37.90
2022-11-14T01:27:34.903Z,35.70
2022-11-14T01:28:35.895Z,39.80
2022-11-14T01:29:36.729Z,38.20
2022-11-14T01:31:03.359Z,39.20
2022-11-14T01:31:36.858Z,38.40
2022-11-14T01:32:36.192Z,37.10
2022-11-14T01:33:35.094Z,37.30
2022-11-14T01:34:36.958Z,39.10
2022-11-14T01:35:37.854Z,38.70
2022-11-14T01:36:36.267Z,39.80
2022-11-14T01:37:35.689Z,42.20
2022-11-14T01:38:36.064Z,37.90
2022-11-14T01:39:36.635Z,38.30
2022-11-14T01:40:36.197Z,36.70
2022-11-14T01:41:42.226Z,38.40
2022-11-14T01:42:36.982Z,36.40
2022-11-14T01:43:35.363Z,38.00
2022-11-14T01:44:36.590Z,39.30
2022-11-14T01:45:37.005Z,41.10
2022-11-14T01:46:36.628Z,42.90
2022-11-14T01:47:35.719Z,37.80
2022-11-14T01:48:40.942Z,38.30
2022-11-14T01:49:35.680Z,40.40
2022-11-14T01:50:38.453Z,37.80
2022-11-14T01:54:03.733Z,37.10
2022-11-14T01:54:57.323Z,35.90
2022-11-14T01:59:13.834Z,40.70
2022-11-14T02:00:03.267Z,41.00
2022-11-14T02:01:02.406Z,38.60
2022-11-14T02:02:01.909Z,39.00
2022-11-14T02:03:00.265Z,36.20
2022-11-14T02:04:02.618Z,38.50
2022-11-14T02:05:30.363Z,40.50
2022-11-14T02:05:59.904Z,43.30
2022-11-14T02:07:02.112Z,41.00
2022-11-14T02:08:00.901Z,37.70
2022-11-14T02:09:02.419Z,39.80
2022-11-14T02:10:01.654Z,38.30
2022-11-14T02:11:00.523Z,39.70
2022-11-14T02:12:01.412Z,38.80
2022-11-14T02:13:01.911Z,40.60
2022-11-14T02:14:00.394Z,36.80
2022-11-14T02:15:06.226Z,37.30
2022-11-14T02:15:59.797Z,38.20
2022-11-14T02:17:27.275Z,40.10
2022-11-14T02:18:01.096Z,38.30
2022-11-14T02:19:01.091Z,36.20
2022-11-14T02:20:04.776Z,37.80
2022-11-14T02:21:03.208Z,39.00
2022-11-14T02:22:00.041Z,38.00
2022-11-14T02:23:00.039Z,37.80
2022-11-14T02:24:01.092Z,37.90
2022-11-14T02:24:59.820Z,38.30
2022-11-14T02:25:59.885Z,37.40
2022-11-14T02:27:00.777Z,37.50
2022-11-14T02:27:59.433Z,37.30
2022-11-14T02:29:00.381Z,37.40
2022-11-14T02:29:59.767Z,37.60
2022-11-14T02:30:59.870Z,36.60
2022-11-14T02:32:00.011Z,42.10
2022-11-14T02:33:16.033Z,37.20
2022-11-14T02:34:01.406Z,38.20
2022-11-14T02:35:00.053Z,38.70
2022-11-14T02:36:01.031Z,37.10
2022-11-14T02:37:01.508Z,36.70
2022-11-14T02:38:01.341Z,37.80
2022-11-14T02:39:02.123Z,36.40
2022-11-14T02:40:02.946Z,38.60
2022-11-14T02:41:00.750Z,40.00
2022-11-14T02:42:01.461Z,38.20
2022-11-14T02:43:01.140Z,39.50
2022-11-14T02:44:00.627Z,38.00
2022-11-14T02:44:59.932Z,38.70
2022-11-14T02:46:05.575Z,36.80
2022-11-14T02:47:00.680Z,40.70
2022-11-14T02:48:00.427Z,40.60
2022-11-14T02:49:00.798Z,37.10
2022-11-14T02:49:59.406Z,36.30
2022-11-14T02:50:59.907Z,38.50
2022-11-14T02:51:59.973Z,39.50
2022-11-14T02:53:02.030Z,37.50
2022-11-14T02:53:59.071Z,37.80
2022-11-14T02:55:00.960Z,40.30
2022-11-14T02:58:17.386Z,39.90
2022-11-14T02:58:39.297Z,40.10
2022-11-14T02:59:39.763Z,41.10
2022-11-14T03:00:53.297Z,38.40
2022-11-14T03:01:39.496Z,38.00
2022-11-14T03:02:39.370Z,37.80
2022-11-14T03:03:40.816Z,40.10
2022-11-14T03:04:41.027Z,38.60
2022-11-14T03:05:38.742Z,38.30
2022-11-14T03:06:39.713Z,39.30
2022-11-14T03:07:41.124Z,38.90
2022-11-14T03:08:40.480Z,42.40
2022-11-14T03:09:38.364Z,39.50
2022-11-14T03:10:39.012Z,37.90
2022-11-14T03:11:40.885Z,42.50
2022-11-14T03:12:40.145Z,39.20
2022-11-14T03:13:39.641Z,39.70
2022-11-14T03:14:39.115Z,40.20
2022-11-14T03:15:37.914Z,37.90
2022-11-14T03:16:39.364Z,37.50
2022-11-14T03:17:40.017Z,37.90
2022-11-14T03:18:38.685Z,38.10
2022-11-14T03:19:38.643Z,38.50
2022-11-14T03:20:40.024Z,38.30
2022-11-14T03:21:38.956Z,40.30
2022-11-14T03:22:38.825Z,43.80
2022-11-14T03:23:38.971Z,43.60
2022-11-14T03:24:39.371Z,41.50
2022-11-14T03:25:41.014Z,43.00
2022-11-14T03:26:37.654Z,41.00
2022-11-14T03:27:39.363Z,42.10
2022-11-14T03:28:37.574Z,41.30
2022-11-14T03:29:38.549Z,41.70
2022-11-14T03:30:39.348Z,41.20
2022-11-14T03:31:39.345Z,39.60
2022-11-14T03:32:39.493Z,40.90
2022-11-14T03:33:38.012Z,40.50
2022-11-14T03:34:38.527Z,39.70
2022-11-14T03:35:39.712Z,39.20
2022-11-14T03:36:37.719Z,40.50
2022-11-14T03:37:37.603Z,40.40
2022-11-14T03:38:38.118Z,41.70
2022-11-14T03:39:40.695Z,40.30
2022-11-14T03:40:37.656Z,40.40
2022-11-14T03:41:37.316Z,40.40
2022-11-14T03:42:38.050Z,40.60
2022-11-14T03:43:38.715Z,41.30
2022-11-14T03:44:37.607Z,39.10
2022-11-14T03:45:38.681Z,39.70
2022-11-14T03:46:40.806Z,37.90
2022-11-14T03:47:38.484Z,43.70
2022-11-14T03:48:38.420Z,38.80
2022-11-14T03:49:38.234Z,39.30
2022-11-14T03:50:36.966Z,40.90
2022-11-14T03:51:38.559Z,38.70
2022-11-14T03:52:38.166Z,38.50
2022-11-14T03:53:37.151Z,38.20
2022-11-14T03:54:37.815Z,37.20
2022-11-14T03:55:44.833Z,38.70
2022-11-14T03:56:48.205Z,38.80
2022-11-14T03:57:39.643Z,37.30
2022-11-14T03:58:39.940Z,40.40
2022-11-14T03:59:39.718Z,38.50
2022-11-14T04:00:38.056Z,37.20
2022-11-14T04:01:38.556Z,38.60
2022-11-14T04:02:40.121Z,38.10
2022-11-14T04:03:37.310Z,40.40
2022-11-14T04:04:38.651Z,37.10
2022-11-14T04:05:38.208Z,39.80
2022-11-14T04:06:40.022Z,37.40
2022-11-14T04:07:38.747Z,42.50
2022-11-14T04:08:38.290Z,39.90
2022-11-14T04:09:39.682Z,39.80
2022-11-14T04:10:38.059Z,39.70
2022-11-14T04:11:37.105Z,39.30
2022-11-14T04:13:00.155Z,40.40
2022-11-14T04:13:37.058Z,38.80
2022-11-14T04:14:41.100Z,41.60
2022-11-14T04:15:37.938Z,38.90
2022-11-14T04:18:24.426Z,38.70
2022-11-14T04:19:01.776Z,38.80
2022-11-14T04:20:02.065Z,38.20
2022-11-14T04:21:02.918Z,37.90
2022-11-14T04:22:02.865Z,36.20
2022-11-14T04:25:33.476Z,40.50
2022-11-14T04:26:39.602Z,40.90
2022-11-14T04:27:31.669Z,39.70
2022-11-14T04:28:28.186Z,40.00
2022-11-14T04:29:31.192Z,40.40
2022-11-14T04:30:30.853Z,38.50
2022-11-14T04:31:30.909Z,39.40
2022-11-14T04:32:32.900Z,43.70
2022-11-14T04:33:28.727Z,36.80
2022-11-14T04:34:34.626Z,35.70
2022-11-14T04:35:31.052Z,40.70
2022-11-14T04:36:28.410Z,37.60
2022-11-14T04:37:30.640Z,40.30
2022-11-14T04:38:29.732Z,38.40
2022-11-14T04:39:28.978Z,35.60
2022-11-14T04:40:28.418Z,37.60
2022-11-14T04:41:29.200Z,40.40
2022-11-14T04:42:30.073Z,37.90
2022-11-14T04:43:30.822Z,37.20
2022-11-14T04:44:34.073Z,38.40
2022-11-14T04:45:28.605Z,38.80
2022-11-14T04:48:06.628Z,39.30
2022-11-14T04:48:52.895Z,39.10
2022-11-14T04:49:53.235Z,39.20
2022-11-14T04:50:51.890Z,37.60
2022-11-14T04:51:52.821Z,39.80
2022-11-14T04:52:54.982Z,39.70
2022-11-14T04:53:53.217Z,37.50
2022-11-14T04:54:51.769Z,38.50
2022-11-14T04:55:53.287Z,38.80
2022-11-14T04:56:52.762Z,36.40
2022-11-14T04:57:51.987Z,39.00
2022-11-14T04:58:53.963Z,41.90
2022-11-14T04:59:52.685Z,40.50
2022-11-14T05:00:51.088Z,41.00
2022-11-14T05:01:51.399Z,39.20
2022-11-14T05:02:50.689Z,36.50
2022-11-14T05:03:52.893Z,40.10
2022-11-14T05:05:00.254Z,41.10
2022-11-14T05:05:51.959Z,37.20
2022-11-14T05:06:51.417Z,41.80
2022-11-14T05:07:52.909Z,37.40
2022-11-14T05:08:51.297Z,41.30
2022-11-14T05:09:51.695Z,39.40
2022-11-14T05:10:51.444Z,40.00
2022-11-14T05:11:51.090Z,38.80
2022-11-14T05:12:52.187Z,37.50
2022-11-14T05:13:53.123Z,41.00
2022-11-14T05:14:53.153Z,40.30
2022-11-14T05:15:56.778Z,41.40
2022-11-14T05:16:54.843Z,40.70
2022-11-14T05:17:50.670Z,38.40
2022-11-14T05:18:50.918Z,37.20
2022-11-14T05:19:51.271Z,41.40
2022-11-14T05:20:52.145Z,39.80
2022-11-14T05:21:54.201Z,39.80
2022-11-14T05:22:51.040Z,40.30
2022-11-14T05:23:52.040Z,38.60
2022-11-14T05:24:50.598Z,42.10
2022-11-14T05:25:57.615Z,41.90
2022-11-14T05:26:54.445Z,37.20
2022-11-14T05:27:51.886Z,40.30
2022-11-14T05:28:51.061Z,41.60
2022-11-14T05:29:50.731Z,42.10
2022-11-14T05:30:51.501Z,39.30
2022-11-14T05:31:51.371Z,39.60
2022-11-14T05:32:51.010Z,39.90
2022-11-14T05:33:50.516Z,41.50
2022-11-14T05:34:51.748Z,41.20
2022-11-14T05:35:51.575Z,39.80
2022-11-14T05:36:53.192Z,40.20
2022-11-14T05:37:57.358Z,38.40
2022-11-14T05:38:51.342Z,39.70
2022-11-14T05:42:55.671Z,40.70
2022-11-14T05:43:51.539Z,40.10
2022-11-14T05:44:47.628Z,39.10
2022-11-14T05:45:50.095Z,38.70
2022-11-14T05:46:47.969Z,41.30
2022-11-14T05:47:48.187Z,42.20
2022-11-14T05:48:48.862Z,42.90
2022-11-14T05:49:49.127Z,43.70
2022-11-14T05:50:47.120Z,41.20
2022-11-14T05:51:48.738Z,39.60
2022-11-14T05:52:47.959Z,41.90
2022-11-14T05:53:46.856Z,42.00
2022-11-14T05:54:51.562Z,40.20
2022-11-14T05:55:49.606Z,42.60
2022-11-14T05:56:48.700Z,42.10
2022-11-14T05:57:50.197Z,44.40
2022-11-14T05:58:49.487Z,42.20
2022-11-14T05:59:48.890Z,44.20
2022-11-14T06:00:53.539Z,42.20
2022-11-14T06:01:59.164Z,42.60
2022-11-14T06:02:47.950Z,43.90
2022-11-14T06:03:47.101Z,39.30
2022-11-14T06:04:48.764Z,42.70
2022-11-14T06:05:47.692Z,39.00
2022-11-14T06:07:08.606Z,43.40
2022-11-14T06:07:49.278Z,43.90
2022-11-14T06:08:46.540Z,40.90
2022-11-14T06:09:48.618Z,41.80
2022-11-14T06:10:47.639Z,43.60
2022-11-14T06:11:48.997Z,41.50
2022-11-14T06:12:49.387Z,46.20
2022-11-14T06:13:51.361Z,43.30
2022-11-14T06:14:48.962Z,42.30
2022-11-14T06:18:55.884Z,44.10
2022-11-14T06:19:32.073Z,44.20
2022-11-14T06:20:31.803Z,42.50
2022-11-14T06:21:30.934Z,44.10
2022-11-14T06:22:31.158Z,41.10
2022-11-14T06:23:33.434Z,46.30
2022-11-14T06:24:31.185Z,43.00
2022-11-14T06:25:31.551Z,43.30
2022-11-14T06:26:32.155Z,43.40
2022-11-14T06:27:32.493Z,45.00
2022-11-14T06:28:39.464Z,44.60
2022-11-14T06:29:35.639Z,42.40
2022-11-14T06:30:34.928Z,43.30
2022-11-14T06:31:35.954Z,42.70
2022-11-14T06:32:31.888Z,44.10
2022-11-14T06:33:32.397Z,48.00
2022-11-14T06:36:55.358Z,48.80
2022-11-14T06:37:58.288Z,47.80
2022-11-14T06:38:52.145Z,46.30
2022-11-14T06:39:54.862Z,46.50
2022-11-14T06:40:53.177Z,45.50
2022-11-14T06:41:58.412Z,50.00
2022-11-14T06:42:50.366Z,52.60
2022-11-14T06:43:57.292Z,49.20
2022-11-14T06:44:54.919Z,44.30
2022-11-14T06:45:48.601Z,50.70
2022-11-14T06:46:47.593Z,49.00
2022-11-14T06:47:48.656Z,46.60
2022-11-14T06:48:49.997Z,49.40
2022-11-14T06:49:50.200Z,50.70
2022-11-14T06:50:54.220Z,48.60
2022-11-14T06:51:49.810Z,48.80
2022-11-14T06:52:50.018Z,47.30
2022-11-14T06:55:46.608Z,49.20
2022-11-14T06:56:51.429Z,50.50
2022-11-14T06:57:47.845Z,47.80
2022-11-14T06:58:46.146Z,44.60
2022-11-14T06:59:46.591Z,49.40
2022-11-14T07:00:50.274Z,49.70
2022-11-14T07:01:48.256Z,41.90
2022-11-14T07:07:35.874Z,49.90
2022-11-14T07:08:35.936Z,50.90
2022-11-14T07:09:36.200Z,47.40
2022-11-14T07:10:36.196Z,46.70
2022-11-14T07:11:35.679Z,45.50
2022-11-14T07:12:36.507Z,47.80
2022-11-14T07:13:36.487Z,43.40
2022-11-14T07:14:35.705Z,45.80
2022-11-14T07:15:35.689Z,44.70
2022-11-14T07:16:36.011Z,44.60
2022-11-14T07:17:35.643Z,43.80
2022-11-14T07:18:35.720Z,44.50
2022-11-14T07:19:36.026Z,47.70
2022-11-14T07:20:35.657Z,48.20
2022-11-14T07:21:35.649Z,45.60
2022-11-14T07:22:35.769Z,45.40
2022-11-14T07:23:35.539Z,44.60
2022-11-14T07:24:36.580Z,45.20
2022-11-14T07:25:35.676Z,48.40
2022-11-14T07:26:35.535Z,49.40
2022-11-14T07:27:35.456Z,49.40
2022-11-14T07:28:35.701Z,49.20
2022-11-14T07:29:35.616Z,49.50
2022-11-14T07:30:36.254Z,48.60
2022-11-14T07:31:35.306Z,49.70
2022-11-14T07:32:35.427Z,49.00
2022-11-14T07:33:36.162Z,49.90
2022-11-14T07:34:35.432Z,50.60
2022-11-14T07:35:35.755Z,49.60
2022-11-14T07:36:35.245Z,49.70
2022-11-14T07:37:35.343Z,52.90
2022-11-14T07:38:35.278Z,49.40
2022-11-14T07:39:35.469Z,49.00
2022-11-14T07:40:35.563Z,51.90
2022-11-14T07:41:35.265Z,47.20
2022-11-14T07:42:35.199Z,49.40
2022-11-14T07:43:35.275Z,50.60
2022-11-14T07:44:35.519Z,50.60
2022-11-14T07:45:35.589Z,51.80
2022-11-14T07:46:37.366Z,52.40
2022-11-14T07:47:35.624Z,48.40
2022-11-14T07:48:35.238Z,50.10
2022-11-14T07:49:35.315Z,51.80
2022-11-14T07:50:35.449Z,52.60
2022-11-14T07:51:35.061Z,50.50
2022-11-14T07:52:36.260Z,49.90
2022-11-14T07:53:35.568Z,53.60
2022-11-14T07:54:35.165Z,50.40
2022-11-14T07:55:35.057Z,54.30
2022-11-14T07:56:35.378Z,50.50
2022-11-14T07:57:41.082Z,52.30
2022-11-14T07:58:36.090Z,51.50
2022-11-14T07:59:35.969Z,49.10
2022-11-14T08:00:37.429Z,49.40
2022-11-14T08:01:37.793Z,50.00
2022-11-14T08:02:35.841Z,51.10
2022-11-14T08:03:34.939Z,49.50
2022-11-14T08:04:34.969Z,49.60
2022-11-14T08:05:34.958Z,49.80
2022-11-14T08:06:34.928Z,53.80
2022-11-14T08:07:35.149Z,49.30
2022-11-14T08:08:35.356Z,47.60
2022-11-14T08:09:34.950Z,46.30
2022-11-14T08:10:36.505Z,48.70
2022-11-14T08:11:39.400Z,44.90
2022-11-14T08:12:38.080Z,44.10
2022-11-14T08:13:55.780Z,47.20
2022-11-14T08:14:35.109Z,42.50
2022-11-14T08:15:37.624Z,41.40
2022-11-14T08:18:40.661Z,43.60
2022-11-14T08:19:40.842Z,43.90
2022-11-14T08:20:40.577Z,43.10
2022-11-14T08:23:50.912Z,47.30
2022-11-14T08:24:52.699Z,47.70
2022-11-14T08:25:51.766Z,49.70
2022-11-14T08:26:50.663Z,49.50
2022-11-14T08:27:50.843Z,49.00
2022-11-14T08:28:51.269Z,51.90
2022-11-14T08:29:50.579Z,52.90
2022-11-14T08:30:52.665Z,49.90
2022-11-14T08:38:04.879Z,50.60
2022-11-14T08:39:03.856Z,48.90
2022-11-14T08:40:04.664Z,47.50
2022-11-14T08:41:04.802Z,51.00
2022-11-14T08:42:03.847Z,45.30
2022-11-14T08:43:22.199Z,49.70
2022-11-14T08:44:03.883Z,47.10
2022-11-14T08:45:03.794Z,46.90
2022-11-14T08:46:03.814Z,47.40
2022-11-14T08:47:03.807Z,48.40
2022-11-14T08:48:04.022Z,48.30
2022-11-14T08:49:04.198Z,45.80
2022-11-14T08:50:03.798Z,46.90
2022-11-14T08:51:03.748Z,48.00
2022-11-14T08:52:05.275Z,45.30
2022-11-14T08:53:03.761Z,48.10
2022-11-14T08:54:03.733Z,46.60
2022-11-14T08:55:03.570Z,46.40
2022-11-14T08:56:03.735Z,45.20
2022-11-14T08:57:03.758Z,43.60
2022-11-14T08:58:03.991Z,46.90
2022-11-14T08:59:03.752Z,45.50
2022-11-14T09:00:06.325Z,44.80
2022-11-14T09:01:04.511Z,44.70
2022-11-14T09:02:07.329Z,43.10
2022-11-14T09:03:05.713Z,44.40
2022-11-14T09:04:07.008Z,44.50
2022-11-14T09:05:06.477Z,46.30
2022-11-14T09:06:05.510Z,45.10
2022-11-14T09:07:06.744Z,45.60
2022-11-14T09:08:08.069Z,46.50
2022-11-14T09:09:06.376Z,43.50
2022-11-14T09:10:05.251Z,46.20
2022-11-14T09:11:14.291Z,45.20
2022-11-14T09:12:13.282Z,44.60
2022-11-14T09:13:19.423Z,45.90
2022-11-14T09:14:26.719Z,48.90
2022-11-14T09:15:04.789Z,46.50
2022-11-14T09:16:13.977Z,47.40
2022-11-14T09:17:12.586Z,45.20
2022-11-14T09:18:38.305Z,48.60
2022-11-14T09:19:18.941Z,50.40
2022-11-14T09:20:36.163Z,45.60
2022-11-14T09:21:04.763Z,46.10
2022-11-14T09:22:04.617Z,47.50
2022-11-14T09:23:06.179Z,43.00
2022-11-14T09:24:07.275Z,45.70
2022-11-14T09:25:03.298Z,45.50
2022-11-14T09:26:05.557Z,47.40
2022-11-14T09:27:03.313Z,46.80
2022-11-14T09:28:03.974Z,47.90
2022-11-14T09:29:03.445Z,44.90
2022-11-14T09:30:03.246Z,44.10
2022-11-14T09:31:03.288Z,45.50
2022-11-14T09:32:03.281Z,48.60
2022-11-14T09:33:10.107Z,43.80
2022-11-14T09:34:04.432Z,44.20
2022-11-14T09:35:03.297Z,46.30
2022-11-14T09:36:03.096Z,45.50
2022-11-14T09:37:03.134Z,43.40
2022-11-14T09:38:03.407Z,45.80
2022-11-14T09:39:03.449Z,46.30
2022-11-14T09:40:03.110Z,46.00
2022-11-14T09:41:03.130Z,44.90
2022-11-14T09:42:03.957Z,45.90
2022-11-14T09:43:03.153Z,43.20
2022-11-14T09:44:03.967Z,48.60
2022-11-14T09:45:03.073Z,45.50
2022-11-14T09:46:03.239Z,43.40
2022-11-14T09:47:03.111Z,46.20
2022-11-14T09:48:03.283Z,43.90
2022-11-14T09:49:03.933Z,46.60
2022-11-14T09:50:06.068Z,43.30
2022-11-14T09:51:09.764Z,44.70
2022-11-14T09:52:06.400Z,42.10
2022-11-14T09:53:05.047Z,42.50
2022-11-14T09:54:06.635Z,41.00
2022-11-14T09:55:15.447Z,43.00
2022-11-14T09:56:04.500Z,44.60
2022-11-14T09:57:09.417Z,42.50
2022-11-14T09:58:08.373Z,40.00
2022-11-14T09:59:07.093Z,44.70
2022-11-14T10:00:04.776Z,39.70
2022-11-14T10:01:09.370Z,39.20
2022-11-14T10:02:09.028Z,40.70
2022-11-14T10:03:08.487Z,44.00
2022-11-14T10:04:09.160Z,41.00
2022-11-14T10:05:07.484Z,41.00
2022-11-14T10:06:05.305Z,37.60
2022-11-14T10:07:05.622Z,39.40
2022-11-14T10:08:04.778Z,37.00
2022-11-14T10:09:05.042Z,39.80
2022-11-14T10:10:05.219Z,37.40
2022-11-14T10:11:12.023Z,38.60
2022-11-14T10:26:23.108Z,35.00
2022-11-14T10:27:30.381Z,35.60
2022-11-14T10:28:25.253Z,36.10
2022-11-14T10:29:27.248Z,36.00
2022-11-14T10:30:31.358Z,35.00
2022-11-14T10:31:23.852Z,32.50
2022-11-14T10:32:29.143Z,35.70
2022-11-14T10:33:33.781Z,33.90
2022-11-14T10:34:38.745Z,34.80
2022-11-14T10:35:28.754Z,33.70
2022-11-14T10:36:43.838Z,33.60
2022-11-14T10:37:23.278Z,34.60
2022-11-14T10:38:20.413Z,33.40
2022-11-14T10:39:19.989Z,33.70
2022-11-14T10:40:19.140Z,38.30
2022-11-14T10:41:41.811Z,33.70
2022-11-14T10:42:21.286Z,31.50
2022-11-14T10:43:23.006Z,35.70
2022-11-14T10:44:21.285Z,33.80
2022-11-14T10:45:20.157Z,35.20
2022-11-14T10:46:20.269Z,31.90
2022-11-14T10:47:26.268Z,33.60
2022-11-14T10:48:22.331Z,31.90
2022-11-14T10:49:20.397Z,33.80
2022-11-14T10:50:19.769Z,35.80
2022-11-14T10:51:21.037Z,32.30
2022-11-14T10:52:21.864Z,30.60
2022-11-14T10:53:19.779Z,33.90
2022-11-14T10:54:20.047Z,32.50
2022-11-14T11:02:36.448Z,33.50
2022-11-14T11:03:27.364Z,33.10
2022-11-14T11:04:26.557Z,32.60
2022-11-14T11:05:26.618Z,33.20
2022-11-14T11:06:26.657Z,33.80
2022-11-14T11:07:26.725Z,31.40
2022-11-14T11:08:42.590Z,32.20
2022-11-14T11:09:27.700Z,33.60
2022-11-14T11:10:48.477Z,31.90
2022-11-14T11:11:27.379Z,31.90
2022-11-14T11:12:29.269Z,32.90
2022-11-14T11:13:26.636Z,32.60
2022-11-14T11:14:27.283Z,33.30
2022-11-14T11:15:26.452Z,31.20
2022-11-14T11:16:26.581Z,34.50
2022-11-14T11:17:34.907Z,33.10
2022-11-14T11:18:27.567Z,33.00
2022-11-14T11:19:27.919Z,31.70
2022-11-14T11:20:26.303Z,34.10
2022-11-14T11:21:26.448Z,34.40
2022-11-14T11:22:26.507Z,31.70
2022-11-14T11:24:52.009Z,32.40
2022-11-14T11:25:51.814Z,31.90
2022-11-14T11:26:52.017Z,37.50
2022-11-14T11:27:51.833Z,36.70
2022-11-14T11:28:51.934Z,35.90
2022-11-14T11:29:52.233Z,32.60
2022-11-14T11:30:54.465Z,31.70
2022-11-14T11:31:52.041Z,37.10
2022-11-14T11:32:52.010Z,34.10
2022-11-14T11:33:51.860Z,32.30
2022-11-14T11:34:53.397Z,33.20
2022-11-14T11:35:51.990Z,31.40
2022-11-14T11:36:51.895Z,31.00
2022-11-14T11:37:52.506Z,32.80
2022-11-14T11:38:51.805Z,32.30
2022-11-14T11:39:51.797Z,33.50
2022-11-14T11:40:52.968Z,28.50
2022-11-14T11:43:56.867Z,33.90
2022-11-14T11:44:51.632Z,33.60
2022-11-14T11:45:53.390Z,30.80
2022-11-14T11:46:52.368Z,34.00
2022-11-14T11:47:51.992Z,32.40
2022-11-14T11:48:51.761Z,33.60
2022-11-14T11:49:54.325Z,33.30
2022-11-14T11:50:53.015Z,31.80
2022-11-14T11:51:51.493Z,32.10
2022-11-14T11:52:53.213Z,32.60
2022-11-14T11:53:51.597Z,33.40
2022-11-14T11:54:51.828Z,33.10
2022-11-14T11:55:51.516Z,32.10
2022-11-14T11:56:59.612Z,32.50
2022-11-14T11:58:02.042Z,33.60
2022-11-14T11:58:57.465Z,33.60
2022-11-14T11:59:55.550Z,35.90
2022-11-14T12:00:55.580Z,35.30
2022-11-14T12:01:55.154Z,35.00
2022-11-14T12:02:52.382Z,34.80
2022-11-14T12:03:59.197Z,34.20
2022-11-14T12:04:56.201Z,34.10
2022-11-14T12:05:55.539Z,35.10
2022-11-14T12:06:53.519Z,37.40
2022-11-14T12:07:51.496Z,36.40
2022-11-14T12:08:55.948Z,36.50
2022-11-14T12:10:56.940Z,33.40
2022-11-14T12:11:51.233Z,33.90
2022-11-14T12:12:51.301Z,35.60
2022-11-14T12:13:51.257Z,34.30
2022-11-14T12:14:54.361Z,31.70
2022-11-14T12:16:00.145Z,34.80
2022-11-14T12:16:54.359Z,36.20
2022-11-14T12:17:51.283Z,32.30
2022-11-14T12:18:57.782Z,35.20
2022-11-14T12:19:54.583Z,36.40
2022-11-14T12:20:56.865Z,36.80
2022-11-14T12:21:58.441Z,31.70
2022-11-14T12:22:55.651Z,36.10
2022-11-14T12:23:52.072Z,34.40
2022-11-14T12:25:14.518Z,34.40
2022-11-14T12:25:55.222Z,35.10
2022-11-14T12:26:55.810Z,35.00
2022-11-14T12:27:51.473Z,33.70
2022-11-14T12:29:00.387Z,34.20
2022-11-14T12:29:58.120Z,32.70
2022-11-14T12:30:53.236Z,32.60
2022-11-14T12:31:53.418Z,33.10
2022-11-14T12:32:52.938Z,32.90
2022-11-14T12:33:51.978Z,33.00
2022-11-14T12:34:52.213Z,33.60
2022-11-14T12:35:52.077Z,30.90
2022-11-14T12:36:53.907Z,31.90
2022-11-14T12:37:57.724Z,32.90
2022-11-14T12:38:52.106Z,29.60
2022-11-14T12:39:54.666Z,31.70
2022-11-14T12:40:55.737Z,32.50
2022-11-14T12:41:55.813Z,33.10
2022-11-14T12:42:56.697Z,31.90
2022-11-14T12:43:52.247Z,36.20
2022-11-14T12:44:53.140Z,33.00
2022-11-14T12:45:56.873Z,34.10
2022-11-14T12:46:59.508Z,31.70
2022-11-14T12:47:54.212Z,33.00
2022-11-14T12:48:51.476Z,31.90
2022-11-14T12:49:52.710Z,34.00
2022-11-14T12:50:53.489Z,34.60
2022-11-14T12:51:51.888Z,33.10
2022-11-14T12:52:54.046Z,32.50
2022-11-14T12:53:53.167Z,33.90
2022-11-14T12:54:52.050Z,33.50
2022-11-14T12:55:50.905Z,32.40
2022-11-14T12:56:53.968Z,31.70
2022-11-14T12:57:52.761Z,33.50
2022-11-14T12:58:52.308Z,34.80
2022-11-14T12:59:53.960Z,31.80
2022-11-14T13:00:53.390Z,33.80
2022-11-14T13:01:52.017Z,32.40
2022-11-14T13:02:57.304Z,34.20
2022-11-14T13:03:51.831Z,34.30
2022-11-14T13:04:58.741Z,29.70
2022-11-14T13:05:51.941Z,32.00
2022-11-14T13:06:53.823Z,32.80
2022-11-14T13:08:13.083Z,32.20
2022-11-14T13:08:51.151Z,30.00
2022-11-14T13:09:53.169Z,34.30
2022-11-14T13:10:52.923Z,33.30
2022-11-14T13:11:50.775Z,32.30
2022-11-14T13:12:55.290Z,33.30
2022-11-14T13:13:53.606Z,31.90
2022-11-14T13:14:50.548Z,32.10
2022-11-14T13:15:53.628Z,34.20
2022-11-14T13:16:53.447Z,33.00
2022-11-14T13:17:51.860Z,33.60
2022-11-14T13:18:54.449Z,33.10
2022-11-14T13:19:52.376Z,33.50
2022-11-14T13:20:50.965Z,29.50
2022-11-14T13:21:53.064Z,31.60
2022-11-14T13:22:53.485Z,32.10
2022-11-14T13:23:52.415Z,30.90
2022-11-14T13:24:52.660Z,35.60
2022-11-14T13:26:02.430Z,31.70
2022-11-14T13:26:56.025Z,31.10
2022-11-14T13:28:18.850Z,32.60
2022-11-14T13:29:02.895Z,33.60
2022-11-14T13:29:50.328Z,34.20
2022-11-14T13:30:56.535Z,31.00
2022-11-14T13:31:51.978Z,31.70
2022-11-14T13:32:53.337Z,30.60
2022-11-14T13:33:52.996Z,33.90
2022-11-14T13:34:53.718Z,30.00
2022-11-14T13:35:54.800Z,32.70
2022-11-14T13:36:51.893Z,35.20
2022-11-14T13:37:50.985Z,32.40
2022-11-14T13:38:53.114Z,32.40
2022-11-14T13:39:56.167Z,35.00
2022-11-14T13:40:50.932Z,30.00
2022-11-14T13:41:51.839Z,33.60
2022-11-14T13:42:55.732Z,31.70
2022-11-14T13:43:52.589Z,32.60
2022-11-14T13:44:56.855Z,33.40
2022-11-14T13:45:51.344Z,32.80
2022-11-14T13:46:51.573Z,35.20
2022-11-14T13:47:52.413Z,32.10
2022-11-14T13:48:54.154Z,32.10
2022-11-14T13:49:54.526Z,32.00
2022-11-14T13:50:50.826Z,33.30
2022-11-14T13:51:53.746Z,34.30
2022-11-14T13:52:52.454Z,34.70
2022-11-14T13:53:53.956Z,37.60
2022-11-14T13:54:50.260Z,36.70
2022-11-14T13:55:51.242Z,34.80